Time;durP1;ratioP1;P1;durP2;ratioP2;P2;SDS_P1;SDS_P2;PMS_P1;PMS_P2;Temp;Humidity;BMP_temperature;BMP_pressure;BME280_temperature;BME280_humidity;BME280_pressure;Samples;Min_cycle;Max_cycle;Signal;HPM_P1;HPM_P2
2023/12/31 00:02:20;;;;;;;1.97;1.63;;;22.20;54.40;;;;;;4957620;28;95205;-63
2023/12/31 00:04:48;;;;;;;1.77;1.47;;;22.10;53.90;;;;;;4957790;28;91953;-63
2023/12/31 00:07:16;;;;;;;2.83;2.07;;;22.10;54.90;;;;;;4960440;28;92113;-63
2023/12/31 00:09:44;;;;;;;2.20;1.60;;;22.10;55.00;;;;;;4960096;28;93790;-63
2023/12/31 00:12:12;;;;;;;1.60;1.40;;;22.10;53.80;;;;;;4959757;28;95024;-63
2023/12/31 00:14:40;;;;;;;3.17;1.80;;;22.10;53.40;;;;;;4958636;28;91844;-63
2023/12/31 00:17:08;;;;;;;1.13;0.87;;;22.10;53.50;;;;;;4960114;28;92062;-63
2023/12/31 00:19:37;;;;;;;2.07;1.10;;;22.00;52.40;;;;;;4961455;28;93919;-63
2023/12/31 00:22:06;;;;;;;4.03;1.30;;;22.10;52.20;;;;;;4960921;28;93922;-63
2023/12/31 00:24:34;;;;;;;3.07;1.60;;;21.90;51.80;;;;;;4960967;28;91896;-64
2023/12/31 00:27:02;;;;;;;1.37;1.20;;;22.00;51.60;;;;;;4960097;28;91236;-63
2023/12/31 00:29:30;;;;;;;2.40;1.40;;;22.00;51.50;;;;;;4960582;28;93769;-63
2023/12/31 00:31:59;;;;;;;1.40;1.20;;;22.00;51.30;;;;;;4960735;28;93996;-63
2023/12/31 00:34:27;;;;;;;1.73;0.93;;;22.00;51.10;;;;;;4960015;28;92951;-63
2023/12/31 00:36:56;;;;;;;1.07;1.03;;;22.00;51.10;;;;;;4960236;28;92066;-63
2023/12/31 00:39:24;;;;;;;1.93;1.30;;;21.90;50.90;;;;;;4960059;28;93927;-63
2023/12/31 00:41:52;;;;;;;2.67;1.60;;;21.90;50.70;;;;;;4960515;28;93939;-63
2023/12/31 00:44:20;;;;;;;1.77;1.00;;;21.90;50.70;;;;;;4958036;28;92223;-63
2023/12/31 00:46:48;;;;;;;1.43;1.33;;;21.90;50.70;;;;;;4959613;28;92236;-63
2023/12/31 00:49:16;;;;;;;1.83;1.40;;;21.90;50.70;;;;;;4959828;28;94276;-63
2023/12/31 00:51:44;;;;;;;2.77;0.97;;;21.90;50.70;;;;;;4959800;28;93864;-63
2023/12/31 00:54:14;;;;;;;2.80;1.50;;;21.90;50.70;;;;;;4960705;28;92051;-63
2023/12/31 00:56:42;;;;;;;1.73;1.30;;;21.90;50.70;;;;;;4958061;28;92113;-63
2023/12/31 00:59:10;;;;;;;2.03;1.30;;;21.90;50.70;;;;;;4958873;28;95058;-64
2023/12/31 01:01:38;;;;;;;1.37;1.10;;;21.90;50.70;;;;;;4959422;28;94585;-64
2023/12/31 01:04:06;;;;;;;1.00;0.83;;;21.90;50.70;;;;;;4960188;28;92332;-63
2023/12/31 01:06:34;;;;;;;2.20;1.03;;;21.90;50.70;;;;;;4959877;28;93681;-63
2023/12/31 01:09:04;;;;;;;1.00;0.90;;;21.90;50.70;;;;;;4956837;28;94102;-64
2023/12/31 01:11:34;;;;;;;1.20;1.10;;;21.90;50.70;;;;;;4961233;28;93889;-64
2023/12/31 01:14:02;;;;;;;0.77;0.60;;;21.90;50.70;;;;;;4957509;28;91931;-63
2023/12/31 01:16:31;;;;;;;0.83;0.70;;;21.80;50.60;;;;;;4959880;28;91399;-63
2023/12/31 01:18:59;;;;;;;1.20;1.10;;;21.80;50.60;;;;;;4959277;28;94181;-63
2023/12/31 01:21:28;;;;;;;1.23;1.00;;;21.80;50.60;;;;;;4960710;28;92135;-63
2023/12/31 01:23:56;;;;;;;1.13;0.70;;;21.80;51.30;;;;;;4959221;28;92824;-63
2023/12/31 01:26:24;;;;;;;1.23;1.03;;;21.70;51.10;;;;;;4958759;28;91949;-63
2023/12/31 01:28:54;;;;;;;0.90;0.90;;;21.80;51.70;;;;;;4961405;28;94131;-63
2023/12/31 01:31:22;;;;;;;1.20;0.90;;;21.80;52.20;;;;;;4960932;28;93800;-63
2023/12/31 01:33:50;;;;;;;1.13;1.00;;;21.80;52.80;;;;;;4959496;28;92117;-64
2023/12/31 01:36:20;;;;;;;1.57;1.03;;;21.80;53.40;;;;;;4959987;28;92251;-63
2023/12/31 01:38:48;;;;;;;1.00;0.90;;;21.80;53.70;;;;;;4961335;28;94176;-63
2023/12/31 01:41:16;;;;;;;1.10;1.00;;;21.80;53.70;;;;;;4959500;28;93812;-63
2023/12/31 01:43:44;;;;;;;2.97;0.70;;;21.80;53.50;;;;;;4961841;28;92089;-63
2023/12/31 01:46:13;;;;;;;1.17;1.00;;;21.70;53.40;;;;;;4959831;28;92124;-63
2023/12/31 01:48:41;;;;;;;0.80;0.80;;;21.70;53.70;;;;;;4955921;28;95156;-64
2023/12/31 01:51:10;;;;;;;1.43;1.10;;;21.70;53.60;;;;;;4959421;28;94713;-63
2023/12/31 01:53:38;;;;;;;1.13;0.80;;;21.70;53.60;;;;;;4959486;28;92514;-63
2023/12/31 01:56:06;;;;;;;0.67;0.67;;;21.70;53.70;;;;;;4958985;28;92069;-63
2023/12/31 01:58:35;;;;;;;0.67;0.67;;;21.70;53.90;;;;;;4958392;28;94165;-63
2023/12/31 02:01:03;;;;;;;0.50;0.50;;;21.70;54.30;;;;;;4958610;28;93870;-63
2023/12/31 02:03:32;;;;;;;1.60;0.93;;;21.70;54.30;;;;;;4959928;28;92167;-63
2023/12/31 02:06:01;;;;;;;0.87;0.60;;;21.70;54.50;;;;;;4957016;28;91404;-63
2023/12/31 02:08:29;;;;;;;1.33;0.90;;;21.70;54.60;;;;;;4959088;28;94299;-63
2023/12/31 02:10:57;;;;;;;0.57;0.57;;;21.70;55.10;;;;;;4958050;28;93796;-63
2023/12/31 02:13:25;;;;;;;0.70;0.70;;;21.60;55.00;;;;;;4958319;28;94434;-63
2023/12/31 02:15:54;;;;;;;0.60;0.50;;;;;;;;;;4960822;28;92084;-63
2023/12/31 02:18:24;;;;;;;0.70;0.70;;;21.60;49.80;;;;;;4958441;28;94130;-63
2023/12/31 02:20:54;;;;;;;0.20;0.20;;;21.60;50.40;;;;;;4958908;28;95075;-63
2023/12/31 02:23:22;;;;;;;0.77;0.60;;;21.60;50.40;;;;;;4956790;28;93118;-63
2023/12/31 02:25:59;;;;;;;1.33;0.70;;;21.60;50.30;;;;;;4958541;28;93065;-63
2023/12/31 02:28:27;;;;;;;0.70;0.70;;;21.60;50.40;;;;;;4955392;28;94261;-63
2023/12/31 02:30:55;;;;;;;0.50;0.40;;;21.60;50.30;;;;;;4958549;28;93967;-63
2023/12/31 02:33:23;;;;;;;1.90;1.13;;;21.60;50.30;;;;;;4959797;28;92188;-63
2023/12/31 02:35:52;;;;;;;0.57;0.57;;;21.60;50.30;;;;;;4959328;28;92176;-63
2023/12/31 02:38:20;;;;;;;0.70;0.70;;;21.60;50.30;;;;;;4957658;28;95073;-63
2023/12/31 02:40:48;;;;;;;0.70;0.60;;;21.60;50.30;;;;;;4958346;28;94707;-63
2023/12/31 02:43:18;;;;;;;0.60;0.43;;;21.60;50.30;;;;;;4958446;28;92147;-63
2023/12/31 02:45:46;;;;;;;0.53;0.53;;;21.60;50.30;;;;;;4956053;28;92110;-63
2023/12/31 02:48:14;;;;;;;0.83;0.60;;;21.60;50.30;;;;;;4958737;28;94209;-63
2023/12/31 02:50:42;;;;;;;0.33;0.33;;;21.60;50.30;;;;;;4960737;28;93805;-63
2023/12/31 02:53:10;;;;;;;0.70;0.70;;;21.60;50.30;;;;;;4958644;28;91950;-63
2023/12/31 02:55:38;;;;;;;1.27;0.70;;;21.60;50.40;;;;;;4959550;28;91441;-63
2023/12/31 02:58:06;;;;;;;0.90;0.90;;;21.60;50.30;;;;;;4958121;28;94095;-64
2023/12/31 03:00:35;;;;;;;0.43;0.43;;;21.50;50.20;;;;;;4958442;28;92370;-63
2023/12/31 03:03:04;;;;;;;0.83;0.80;;;21.50;50.90;;;;;;4955353;28;93050;-63
2023/12/31 03:05:32;;;;;;;0.80;0.80;;;21.50;50.30;;;;;;4957715;28;92046;-63
2023/12/31 03:08:00;;;;;;;1.27;0.93;;;21.50;50.30;;;;;;4955232;28;94206;-63
2023/12/31 03:10:28;;;;;;;1.43;0.97;;;21.50;50.30;;;;;;4957718;28;92716;-64
2023/12/31 03:12:56;;;;;;;0.97;0.73;;;21.50;50.30;;;;;;4957836;28;92157;-64
2023/12/31 03:15:24;;;;;;;0.60;0.60;;;21.50;50.30;;;;;;4957893;28;92190;-64
2023/12/31 03:17:54;;;;;;;1.17;0.97;;;21.50;50.30;;;;;;4957318;28;94492;-64
2023/12/31 03:20:22;;;;;;;0.87;0.80;;;21.40;50.20;;;;;;4955004;28;93881;-64
2023/12/31 03:22:50;;;;;;;0.53;0.53;;;21.40;50.30;;;;;;4957759;28;92160;-64
2023/12/31 03:25:18;;;;;;;0.50;0.50;;;21.40;50.20;;;;;;4957291;28;92084;-64
2023/12/31 03:27:46;;;;;;;0.53;0.53;;;21.40;50.20;;;;;;4957162;28;95902;-63
2023/12/31 03:30:15;;;;;;;1.77;1.00;;;21.40;50.20;;;;;;4957279;28;94807;-64
2023/12/31 03:32:43;;;;;;;2.10;0.80;;;21.40;50.20;;;;;;4955232;28;92039;-64
2023/12/31 03:35:12;;;;;;;2.60;0.90;;;21.40;50.20;;;;;;4956674;28;92143;-64
2023/12/31 03:37:46;;;;;;;0.70;0.70;;;21.40;50.80;;;;;;4959219;28;94307;-63
2023/12/31 03:40:15;;;;;;;0.73;0.73;;;21.40;50.20;;;;;;4954684;28;93864;-63
2023/12/31 03:42:43;;;;;;;1.37;0.80;;;21.40;50.20;;;;;;4957796;28;92065;-63
2023/12/31 03:45:11;;;;;;;2.20;0.53;;;21.40;50.20;;;;;;4958449;28;91422;-63
2023/12/31 03:47:39;;;;;;;0.67;0.67;;;21.40;50.20;;;;;;4957564;28;94258;-63
2023/12/31 03:50:09;;;;;;;0.63;0.63;;;21.40;50.20;;;;;;4956972;28;93961;-63
2023/12/31 03:52:38;;;;;;;0.50;0.50;;;21.40;50.20;;;;;;4956958;28;92979;-64
2023/12/31 03:55:08;;;;;;;1.27;1.03;;;21.40;50.20;;;;;;4956764;28;92133;-63
2023/12/31 03:57:37;;;;;;;1.03;0.97;;;21.40;50.80;;;;;;4956567;28;94269;-64
2023/12/31 04:00:07;;;;;;;1.77;1.13;;;21.40;50.10;;;;;;4957413;28;93868;-63
2023/12/31 04:02:35;;;;;;;1.03;0.93;;;21.30;50.10;;;;;;4955317;28;92034;-63
2023/12/31 04:05:04;;;;;;;1.50;1.20;;;21.40;50.10;;;;;;4957457;28;92617;-63
2023/12/31 04:07:32;;;;;;;0.70;0.70;;;21.40;50.10;;;;;;4958575;28;94253;-64
2023/12/31 04:10:02;;;;;;;1.47;1.00;;;21.30;50.00;;;;;;4957399;28;94085;-63
2023/12/31 04:12:30;;;;;;;1.23;1.13;;;21.30;50.10;;;;;;4958205;28;91954;-63
2023/12/31 04:14:58;;;;;;;0.77;0.77;;;21.30;50.00;;;;;;4956889;28;92051;-63
2023/12/31 04:17:26;;;;;;;2.63;1.20;;;21.30;50.10;;;;;;4957728;28;95148;-63
2023/12/31 04:19:54;;;;;;;0.80;0.80;;;21.30;50.00;;;;;;4956441;28;94927;-63
2023/12/31 04:22:23;;;;;;;1.27;1.07;;;21.30;50.10;;;;;;4959532;28;91997;-63
2023/12/31 04:24:51;;;;;;;1.43;1.00;;;21.30;50.10;;;;;;4956848;28;92201;-63
2023/12/31 04:27:21;;;;;;;1.60;1.27;;;21.30;50.00;;;;;;4957374;28;94032;-63
2023/12/31 04:29:49;;;;;;;1.17;1.00;;;21.20;50.00;;;;;;4957222;28;93731;-63
2023/12/31 04:32:17;;;;;;;1.40;1.20;;;21.30;50.10;;;;;;4960057;28;91810;-63
2023/12/31 04:34:45;;;;;;;1.03;0.90;;;21.20;50.00;;;;;;4957024;28;91784;-63
2023/12/31 04:37:13;;;;;;;0.90;0.87;;;21.20;50.00;;;;;;4957317;28;94238;-63
2023/12/31 04:39:41;;;;;;;1.03;0.93;;;21.20;50.00;;;;;;4957161;28;94066;-64
2023/12/31 04:42:09;;;;;;;3.90;1.13;;;21.20;50.00;;;;;;4958195;28;92979;-63
2023/12/31 04:44:39;;;;;;;1.30;1.20;;;21.20;50.00;;;;;;4956552;28;91977;-63
2023/12/31 04:47:08;;;;;;;2.77;1.17;;;21.20;50.00;;;;;;4956096;28;94305;-63
2023/12/31 04:49:35;;;;;;;1.50;1.20;;;21.20;50.00;;;;;;4954408;28;93908;-63
2023/12/31 04:52:04;;;;;;;1.27;1.07;;;21.20;50.00;;;;;;4962482;28;92077;-63
2023/12/31 04:54:32;;;;;;;3.87;1.47;;;21.20;50.00;;;;;;4960467;28;92183;-64
2023/12/31 04:57:00;;;;;;;0.77;0.77;;;21.20;50.00;;;;;;4962640;28;92979;-63
2023/12/31 04:59:28;;;;;;;3.00;1.30;;;21.20;50.00;;;;;;4960316;28;92759;-63
2023/12/31 05:01:58;;;;;;;2.33;1.80;;;21.10;49.90;;;;;;4960451;28;91927;-63
2023/12/31 05:04:26;;;;;;;2.03;1.50;;;21.10;49.90;;;;;;4960363;28;92144;-64
2023/12/31 05:06:54;;;;;;;1.23;1.07;;;21.10;49.90;;;;;;4956979;28;95193;-63
2023/12/31 05:09:23;;;;;;;1.63;1.30;;;21.10;49.90;;;;;;4959783;28;94919;-64
2023/12/31 05:11:51;;;;;;;1.93;1.40;;;21.10;49.80;;;;;;4960792;28;92211;-63
2023/12/31 05:14:19;;;;;;;2.17;1.00;;;21.20;49.90;;;;;;4959028;28;92090;-63
2023/12/31 05:16:47;;;;;;;1.40;1.30;;;21.10;49.80;;;;;;4959618;28;94096;-63
2023/12/31 05:19:17;;;;;;;0.90;0.90;;;21.10;49.80;;;;;;4962070;28;95158;-63
2023/12/31 05:21:45;;;;;;;2.33;2.13;;;21.10;49.80;;;;;;4959831;28;92120;-62
2023/12/31 05:24:13;;;;;;;1.67;1.23;;;21.10;49.80;;;;;;4963906;28;91244;-62
2023/12/31 05:26:41;;;;;;;2.07;1.60;;;21.10;49.80;;;;;;4959633;28;94108;-62
2023/12/31 05:29:10;;;;;;;1.20;1.10;;;21.10;50.40;;;;;;4960840;28;94688;-62
2023/12/31 05:31:38;;;;;;;0.93;0.90;;;21.10;49.80;;;;;;4961450;28;94433;-62
2023/12/31 05:34:06;;;;;;;1.30;1.20;;;21.10;49.80;;;;;;4960296;28;92187;-63
2023/12/31 05:36:35;;;;;;;1.63;1.20;;;21.10;49.70;;;;;;4956550;28;94251;-63
2023/12/31 05:39:04;;;;;;;1.77;1.67;;;21.10;49.70;;;;;;4959592;28;92690;-63
2023/12/31 05:41:32;;;;;;;1.50;1.27;;;21.10;49.70;;;;;;4960980;28;92465;-63
2023/12/31 05:44:00;;;;;;;1.13;1.03;;;21.10;49.80;;;;;;4960064;28;93085;-63
2023/12/31 05:46:29;;;;;;;2.93;1.03;;;21.10;49.80;;;;;;4962072;28;94273;-63
2023/12/31 05:48:57;;;;;;;1.33;1.20;;;21.10;49.80;;;;;;4961705;28;94079;-63
2023/12/31 05:51:25;;;;;;;1.63;1.30;;;21.00;50.30;;;;;;4966322;28;92088;-63
2023/12/31 05:53:55;;;;;;;5.03;1.77;;;21.00;49.70;;;;;;4956033;28;91962;-63
2023/12/31 05:56:23;;;;;;;1.47;1.37;;;21.00;49.70;;;;;;4958776;28;95118;-63
2023/12/31 05:58:51;;;;;;;1.90;1.17;;;21.00;49.70;;;;;;4961941;28;94775;-63
2023/12/31 06:01:19;;;;;;;2.10;1.17;;;21.00;49.70;;;;;;4958843;28;92124;-63
2023/12/31 06:03:47;;;;;;;3.83;1.50;;;21.00;49.70;;;;;;4958381;28;92069;-63
2023/12/31 06:06:16;;;;;;;1.60;1.50;;;21.00;49.70;;;;;;4960099;28;94179;-63
2023/12/31 06:08:44;;;;;;;2.67;1.73;;;21.00;50.20;;;;;;4960274;28;93933;-63
2023/12/31 06:11:13;;;;;;;2.17;1.33;;;21.00;49.60;;;;;;4962284;28;93414;-63
2023/12/31 06:13:41;;;;;;;1.53;1.23;;;21.00;49.70;;;;;;4961555;28;91245;-64
2023/12/31 06:16:09;;;;;;;1.10;0.97;;;21.00;49.70;;;;;;4958190;28;92995;-64
2023/12/31 06:18:37;;;;;;;1.50;1.27;;;21.00;49.70;;;;;;4958367;28;94113;-63
2023/12/31 06:21:06;;;;;;;2.90;1.60;;;21.00;49.80;;;;;;4958058;28;93218;-64
2023/12/31 06:23:34;;;;;;;3.40;1.83;;;21.00;49.80;;;;;;4956439;28;92025;-63
2023/12/31 06:26:02;;;;;;;2.70;1.67;;;21.10;49.90;;;;;;4957867;28;94103;-63
2023/12/31 06:28:31;;;;;;;2.10;1.17;;;21.10;49.90;;;;;;4958427;28;93826;-63
2023/12/31 06:30:59;;;;;;;2.53;1.37;;;21.30;49.90;;;;;;4960164;28;91911;-63
2023/12/31 06:33:28;;;;;;;2.00;1.80;;;21.40;49.90;;;;;;4958415;28;92103;-65
2023/12/31 06:35:56;;;;;;;2.50;1.77;;;21.60;49.90;;;;;;4955852;28;94179;-64
2023/12/31 06:38:24;;;;;;;3.47;1.67;;;21.80;49.80;;;;;;4958031;28;93837;-63
2023/12/31 06:40:52;;;;;;;1.73;1.30;;;22.00;49.80;;;;;;4960194;28;92123;-63
2023/12/31 06:43:20;;;;;;;2.10;1.20;;;22.20;49.70;;;;;;4957849;28;92160;-63
2023/12/31 06:45:50;;;;;;;1.73;1.30;;;22.40;49.60;;;;;;4957582;28;95257;-64
2023/12/31 06:48:18;;;;;;;1.70;1.33;;;23.10;49.90;;;;;;4955549;28;94814;-63
2023/12/31 06:50:46;;;;;;;1.87;1.37;;;22.80;49.40;;;;;;4958358;28;92284;-63
2023/12/31 06:53:15;;;;;;;1.87;1.30;;;23.10;49.40;;;;;;4956243;28;91952;-63
2023/12/31 06:55:43;;;;;;;1.80;1.47;;;23.30;49.30;;;;;;4958155;28;93947;-63
2023/12/31 06:58:11;;;;;;;1.83;1.63;;;23.50;49.30;;;;;;4957270;28;93892;-63
2023/12/31 07:00:39;;;;;;;4.17;2.07;;;23.70;49.20;;;;;;4959289;28;92148;-64
2023/12/31 07:03:08;;;;;;;2.43;1.67;;;23.90;49.10;;;;;;4959098;28;91572;-64
2023/12/31 07:05:36;;;;;;;1.77;1.67;;;24.10;49.70;;;;;;4955818;28;93105;-63
2023/12/31 07:08:05;;;;;;;2.50;1.83;;;24.20;48.90;;;;;;4957624;28;93698;-65
2023/12/31 07:10:33;;;;;;;3.20;2.43;;;24.20;48.90;;;;;;4958175;28;93021;-64
2023/12/31 07:13:01;;;;;;;4.07;1.97;;;24.30;49.00;;;;;;4957482;28;92055;-63
2023/12/31 07:15:30;;;;;;;3.07;2.10;;;24.30;49.00;;;;;;4958335;28;94074;-63
2023/12/31 07:17:58;;;;;;;2.83;1.90;;;24.30;49.00;;;;;;4956818;28;93913;-63
2023/12/31 07:20:28;;;;;;;2.27;2.00;;;24.30;49.00;;;;;;4958414;28;92110;-63
2023/12/31 07:22:56;;;;;;;5.17;2.60;;;24.40;49.00;;;;;;4954935;28;92155;-63
2023/12/31 07:25:28;;;;;;;1.83;1.60;;;24.50;49.00;;;;;;4956233;28;94188;-63
2023/12/31 07:27:56;;;;;;;4.37;2.27;;;24.60;48.90;;;;;;4956366;28;93919;-63
2023/12/31 07:30:24;;;;;;;2.13;1.77;;;24.80;48.90;;;;;;4958370;28;92062;-63
2023/12/31 07:32:52;;;;;;;4.97;2.57;;;24.90;48.80;;;;;;4957639;28;92112;-63
2023/12/31 07:35:20;;;;;;;3.33;2.13;;;24.90;49.40;;;;;;4956400;28;95481;-63
2023/12/31 07:37:49;;;;;;;4.67;2.57;;;25.00;48.80;;;;;;4957074;28;94702;-63
2023/12/31 07:40:17;;;;;;;3.27;2.03;;;24.90;48.70;;;;;;4957296;28;92094;-63
2023/12/31 07:42:47;;;;;;;4.73;2.60;;;24.90;48.80;;;;;;4957021;28;92166;-63
2023/12/31 07:45:15;;;;;;;2.03;1.83;;;24.90;48.80;;;;;;4960517;28;94275;-63
2023/12/31 07:47:43;;;;;;;4.67;2.13;;;25.00;48.80;;;;;;4959503;28;93999;-63
2023/12/31 07:50:12;;;;;;;4.53;2.23;;;25.10;48.70;;;;;;4956977;28;92423;-63
2023/12/31 07:52:40;;;;;;;5.50;2.70;;;25.20;48.70;;;;;;4956963;28;91348;-62
2023/12/31 07:55:10;;;;;;;4.53;2.47;;;25.40;48.70;;;;;;4958635;28;93091;-63
2023/12/31 07:57:38;;;;;;;4.90;2.43;;;25.50;48.50;;;;;;4956508;28;94297;-62
2023/12/31 08:00:07;;;;;;;3.03;2.73;;;25.70;48.50;;;;;;4956893;28;93124;-63
2023/12/31 08:02:35;;;;;;;5.90;2.47;;;25.90;48.40;;;;;;4955005;28;91925;-63
2023/12/31 08:05:04;;;;;;;3.27;2.20;;;26.00;48.40;;;;;;4956793;28;94277;-63
2023/12/31 08:07:32;;;;;;;4.33;2.27;;;26.10;48.90;;;;;;4952968;28;93896;-63
2023/12/31 08:10:00;;;;;;;2.43;2.13;;;26.20;48.20;;;;;;4954708;28;92149;-63
2023/12/31 08:12:30;;;;;;;3.87;2.63;;;26.20;48.10;;;;;;4954189;28;92132;-63
2023/12/31 08:14:58;;;;;;;2.43;2.23;;;26.20;48.10;;;;;;4954563;28;94226;-63
2023/12/31 08:17:27;;;;;;;3.20;2.47;;;26.20;48.20;;;;;;4958899;28;93716;-64
2023/12/31 08:19:55;;;;;;;4.80;2.60;;;26.10;48.20;;;;;;4950238;28;92135;-63
2023/12/31 08:22:23;;;;;;;3.63;2.57;;;26.10;48.20;;;;;;4954605;28;92134;-64
2023/12/31 08:24:51;;;;;;;2.43;2.23;;;26.10;48.20;;;;;;4952758;28;95332;-63
2023/12/31 08:27:19;;;;;;;10.07;2.23;;;26.10;48.10;;;;;;4960619;28;94888;-64
2023/12/31 08:29:49;;;;;;;3.13;2.80;;;26.30;48.20;;;;;;4958794;28;92705;-63
2023/12/31 08:32:18;;;;;;;4.30;2.73;;;26.40;48.00;;;;;;4953773;28;92413;-64
2023/12/31 08:34:46;;;;;;;4.23;2.33;;;26.50;48.00;;;;;;4956684;28;95095;-64
2023/12/31 08:37:15;;;;;;;4.00;2.27;;;26.60;47.80;;;;;;4955290;28;93932;-64
2023/12/31 08:39:43;;;;;;;4.10;2.83;;;26.40;47.60;;;;;;4957332;28;93216;-64
2023/12/31 08:42:11;;;;;;;5.37;3.27;;;26.80;47.60;;;;;;4957048;28;91893;-64
2023/12/31 08:44:39;;;;;;;2.07;1.93;;;26.90;47.50;;;;;;4957247;28;94448;-64
2023/12/31 08:47:29;;;;;;;3.13;2.50;;;27.00;47.50;;;;;;4958013;28;95563;-64
2023/12/31 08:49:57;;;;;;;3.10;1.90;;;27.10;47.40;;;;;;4954299;28;93088;-64
2023/12/31 08:52:25;;;;;;;4.53;2.93;;;27.20;47.90;;;;;;4957689;28;93369;-64
2023/12/31 08:54:53;;;;;;;5.07;2.63;;;27.30;47.20;;;;;;4956646;28;93067;-64
2023/12/31 08:57:23;;;;;;;2.63;2.43;;;27.30;47.20;;;;;;4956484;28;93929;-64
2023/12/31 08:59:51;;;;;;;3.97;3.10;;;27.30;47.20;;;;;;4957145;28;92103;-65
2023/12/31 09:02:19;;;;;;;5.73;2.80;;;27.30;47.20;;;;;;4958517;28;92587;-64
2023/12/31 09:04:48;;;;;;;3.47;2.50;;;27.30;47.20;;;;;;4956819;28;94788;-65
2023/12/31 09:07:17;;;;;;;3.03;2.70;;;27.20;47.30;;;;;;4954284;28;93930;-64
2023/12/31 09:09:45;;;;;;;3.77;2.80;;;27.10;47.40;;;;;;4956115;28;92664;-64
2023/12/31 09:12:13;;;;;;;4.20;2.77;;;27.00;47.40;;;;;;4957267;28;92173;-65
2023/12/31 09:14:41;;;;;;;5.60;2.90;;;26.90;47.50;;;;;;4956553;28;97817;-65
2023/12/31 09:17:10;;;;;;;4.90;2.33;;;26.80;47.50;;;;;;4956497;28;93624;-64
2023/12/31 09:19:40;;;;;;;6.07;2.97;;;26.70;47.60;;;;;;4956864;28;92086;-65
2023/12/31 09:22:10;;;;;;;4.43;2.70;;;26.70;47.80;;;;;;4956706;28;92529;-65
2023/12/31 09:24:38;;;;;;;3.00;2.50;;;26.60;47.90;;;;;;4957068;28;94395;-64
2023/12/31 09:27:07;;;;;;;4.17;3.70;;;26.50;47.90;;;;;;4956157;28;93848;-65
2023/12/31 09:29:36;;;;;;;4.27;3.03;;;26.40;48.00;;;;;;4957585;28;92088;-65
2023/12/31 09:32:04;;;;;;;3.07;2.70;;;26.30;48.70;;;;;;4956826;28;91689;-64
2023/12/31 09:34:32;;;;;;;2.90;2.30;;;26.30;48.30;;;;;;4956873;28;93113;-65
2023/12/31 09:37:00;;;;;;;4.20;2.80;;;26.20;48.30;;;;;;4956223;28;94068;-65
2023/12/31 09:39:30;;;;;;;3.47;2.67;;;26.10;48.40;;;;;;4955055;28;93210;-66
2023/12/31 09:42:03;;;;;;;4.07;2.57;;;26.00;48.50;;;;;;4953326;28;92115;-64
2023/12/31 09:44:31;;;;;;;3.90;2.53;;;25.90;48.50;;;;;;4958302;28;94166;-64
2023/12/31 09:47:05;;;;;;;2.90;2.07;;;25.80;48.60;;;;;;4955708;28;93904;-64
2023/12/31 09:49:39;;;;;;;2.53;2.10;;;25.80;48.60;;;;;;4954081;28;92025;-65
2023/12/31 09:52:08;;;;;;;2.67;2.00;;;25.80;48.60;;;;;;4955598;28;92732;-64
2023/12/31 09:54:39;;;;;;;3.17;1.97;;;25.80;48.60;;;;;;4954499;28;94315;-64
2023/12/31 09:57:07;;;;;;;2.50;1.57;;;25.80;48.50;;;;;;4954903;28;93866;-64
2023/12/31 09:59:36;;;;;;;2.23;1.97;;;25.90;49.10;;;;;;4953351;28;92255;-64
2023/12/31 10:02:05;;;;;;;2.30;2.00;;;26.00;48.40;;;;;;4955675;28;92617;-64
2023/12/31 10:04:33;;;;;;;2.70;1.90;;;26.10;48.30;;;;;;4957786;28;95105;-64
2023/12/31 10:07:02;;;;;;;2.93;2.20;;;26.20;48.10;;;;;;4955860;28;94900;-64
2023/12/31 10:09:31;;;;;;;4.53;1.77;;;26.40;48.00;;;;;;4956254;28;92346;-64
2023/12/31 10:12:02;;;;;;;1.70;1.60;;;26.50;47.90;;;;;;4955934;28;92678;-63
2023/12/31 10:14:30;;;;;;;2.00;1.80;;;26.60;47.80;;;;;;4957512;28;94426;-64
2023/12/31 10:16:58;;;;;;;2.57;1.70;;;26.60;47.70;;;;;;4953215;28;93909;-64
2023/12/31 10:19:26;;;;;;;2.20;1.90;;;26.40;47.60;;;;;;4955830;28;92181;-64
2023/12/31 10:21:55;;;;;;;1.80;1.50;;;26.60;47.70;;;;;;4955311;28;91421;-64
2023/12/31 10:24:27;;;;;;;2.73;1.90;;;26.50;47.70;;;;;;4955640;28;94146;-62
2023/12/31 10:26:55;;;;;;;1.97;1.67;;;26.50;47.80;;;;;;4955036;28;95574;-62
2023/12/31 10:29:25;;;;;;;2.67;1.83;;;26.40;47.80;;;;;;4956947;28;92925;-63
2023/12/31 10:31:54;;;;;;;2.70;2.20;;;26.40;47.90;;;;;;4955866;28;92226;-62
2023/12/31 10:34:22;;;;;;;2.20;2.00;;;26.40;47.90;;;;;;4955308;28;93188;-63
2023/12/31 10:36:50;;;;;;;3.93;2.00;;;26.40;47.90;;;;;;4954334;28;94634;-64
2023/12/31 10:39:26;;;;;;;2.53;1.90;;;26.30;47.90;;;;;;4952457;28;92092;-63
2023/12/31 10:41:57;;;;;;;4.37;2.20;;;26.30;48.10;;;;;;4956192;28;92617;-62
2023/12/31 10:44:26;;;;;;;2.70;1.77;;;26.20;48.10;;;;;;4956961;28;94077;-64
2023/12/31 10:46:58;;;;;;;3.17;1.43;;;26.10;48.10;;;;;;4956084;28;94524;-63
2023/12/31 10:49:27;;;;;;;2.20;1.43;;;26.00;48.20;;;;;;4953439;28;92187;-63
2023/12/31 10:51:55;;;;;;;2.23;2.00;;;26.00;48.20;;;;;;4955615;28;92208;-62
2023/12/31 10:54:28;;;;;;;1.60;1.43;;;25.90;48.30;;;;;;4954398;28;95431;-63
2023/12/31 10:56:57;;;;;;;2.43;1.57;;;25.90;48.40;;;;;;4955206;28;94768;-63
2023/12/31 10:59:27;;;;;;;1.60;1.23;;;25.80;48.40;;;;;;4959672;28;92422;-63
2023/12/31 11:01:55;;;;;;;2.37;1.63;;;25.80;48.50;;;;;;4962494;28;92654;-62
2023/12/31 11:04:24;;;;;;;1.53;1.30;;;25.70;48.50;;;;;;4959266;28;94009;-63
2023/12/31 11:06:52;;;;;;;3.70;1.80;;;25.70;48.60;;;;;;4956837;28;95865;-63
2023/12/31 11:09:20;;;;;;;2.40;1.40;;;25.70;48.60;;;;;;4956140;28;92091;-64
2023/12/31 11:11:48;;;;;;;2.13;1.20;;;25.70;48.60;;;;;;4954300;28;92227;-63
2023/12/31 11:14:17;;;;;;;1.37;1.27;;;25.80;48.60;;;;;;4955034;28;94142;-63
2023/12/31 11:16:53;;;;;;;1.10;1.00;;;25.90;48.50;;;;;;4955628;28;92572;-63
2023/12/31 11:19:38;;;;;;;3.43;1.30;;;25.90;48.40;;;;;;4951862;28;93123;-63
2023/12/31 11:22:16;;;;;;;0.87;0.80;;;26.10;48.30;;;;;;4957604;28;92656;-63
2023/12/31 11:24:44;;;;;;;1.20;1.00;;;26.20;48.10;;;;;;4953167;28;94181;-64
2023/12/31 11:27:16;;;;;;;1.30;1.20;;;26.40;48.00;;;;;;4953563;28;92683;-65
2023/12/31 11:29:46;;;;;;;3.23;1.30;;;26.30;47.90;;;;;;4953300;28;93509;-64
2023/12/31 11:32:17;;;;;;;1.13;1.10;;;26.50;47.90;;;;;;4954356;28;92223;-63
2023/12/31 11:34:50;;;;;;;4.03;1.47;;;26.50;47.90;;;;;;4953761;28;94153;-63
2023/12/31 11:37:18;;;;;;;1.30;1.20;;;26.50;47.80;;;;;;4957844;28;93963;-63
2023/12/31 11:39:47;;;;;;;1.40;1.30;;;26.40;47.80;;;;;;4954566;28;92115;-64
2023/12/31 11:42:15;;;;;;;3.67;1.73;;;26.40;47.90;;;;;;4955004;28;92226;-63
2023/12/31 11:44:44;;;;;;;2.07;1.30;;;26.40;47.90;;;;;;4953738;28;95238;-62
2023/12/31 11:47:18;;;;;;;2.40;1.97;;;26.40;47.90;;;;;;4954861;28;94769;-63
2023/12/31 11:49:47;;;;;;;4.33;2.10;;;26.40;47.90;;;;;;4954462;28;92820;-62
2023/12/31 11:52:15;;;;;;;8.13;3.43;;;26.40;47.90;;;;;;4969093;28;92774;-63
2023/12/31 11:54:43;;;;;;;5.47;3.10;;;26.40;48.00;;;;;;4954845;28;94468;-63
2023/12/31 11:57:13;;;;;;;11.07;3.47;;;26.40;48.20;;;;;;4954287;28;93779;-63
2023/12/31 11:59:44;;;;;;;6.27;3.30;;;26.40;48.20;;;;;;4955432;28;92516;-63
2023/12/31 12:02:12;;;;;;;5.67;2.90;;;26.40;48.30;;;;;;4957464;28;91358;-63
2023/12/31 12:04:42;;;;;;;5.13;1.97;;;26.30;48.30;;;;;;4957348;28;94320;-64
2023/12/31 12:07:10;;;;;;;8.80;2.83;;;26.20;48.30;;;;;;4957100;28;96383;-63
2023/12/31 12:09:38;;;;;;;8.00;2.37;;;26.20;48.30;;;;;;4959468;28;93075;-64
2023/12/31 12:12:08;;;;;;;3.83;2.40;;;26.10;48.30;;;;;;4957507;28;92165;-63
2023/12/31 12:14:36;;;;;;;5.73;2.73;;;26.10;48.40;;;;;;4963561;28;94227;-63
2023/12/31 12:17:04;;;;;;;8.60;2.70;;;26.00;48.40;;;;;;4959680;28;93983;-64
2023/12/31 12:19:34;;;;;;;2.13;1.90;;;25.90;48.40;;;;;;4966389;28;92021;-64
2023/12/31 12:22:05;;;;;;;3.33;2.20;;;25.90;48.50;;;;;;4967003;28;92248;-63
2023/12/31 12:24:33;;;;;;;5.83;2.50;;;25.80;48.70;;;;;;4969694;28;94258;-63
2023/12/31 12:27:01;;;;;;;4.03;2.63;;;25.80;49.30;;;;;;4965463;28;94090;-63
2023/12/31 12:29:34;;;;;;;3.03;1.57;;;25.70;49.50;;;;;;4964146;28;92131;-64
2023/12/31 12:32:04;;;;;;;8.60;2.60;;;25.70;49.90;;;;;;4965824;28;92123;-64
2023/12/31 12:34:32;;;;;;;5.33;2.90;;;25.70;50.10;;;;;;4965420;28;95163;-64
2023/12/31 12:37:01;;;;;;;3.63;2.57;;;25.70;50.40;;;;;;4966777;28;94872;-66
2023/12/31 12:39:31;;;;;;;6.10;2.37;;;25.70;51.10;;;;;;4969814;28;92179;-67
2023/12/31 12:42:00;;;;;;;4.40;2.60;;;25.70;51.00;;;;;;4977344;28;92055;-68
2023/12/31 12:44:29;;;;;;;6.43;2.40;;;25.90;51.40;;;;;;4965905;28;92924;-66
2023/12/31 12:46:57;;;;;;;6.57;2.80;;;25.90;51.80;;;;;;4956960;28;94284;-67
2023/12/31 12:49:25;;;;;;;4.17;3.13;;;26.00;52.40;;;;;;4962932;28;92035;-67
2023/12/31 12:51:53;;;;;;;9.50;4.03;;;26.10;53.90;;;;;;4967847;28;91761;-66
2023/12/31 12:54:21;;;;;;;8.57;3.43;;;26.30;58.70;;;;;;4965023;28;94031;-66
2023/12/31 12:56:58;;;;;;;7.50;3.33;;;26.40;56.50;;;;;;4963571;28;93848;-66